Miles, Virginia
Current Conditions -  °F | °C
As of 10:15 AM on Thursday 18 Dec 2014 (Local Time) from KW75 Reporting Station
Clear Clear  
Wind Chill: 32°   Ceiling: Unl
Heat Index: 38°   Visibility: 10mi
Dew Point: 24°   Wind: 9mph
Humidity: 55%   Direction: 330°NNW
Pressure: 30.18"   Gusts: NA
Location:  37.4125°N, 76.3754°W
Report Text: KW75 181515Z AUTO 33008KT 10SM CLR 04/M05 A3018 RMK AO1 T00361046
Loading
Personal Weather Stations






























Interactive Weather Map New forecast layout! Learn more

10-Day Weather Forecast

Advertisements
Track Severe Weather on mobile